Weather reports worldwide

Advertisment
East malling, United Kingdom (99008): temperature & dewpoint: 15.11.2017 13:00:00 - 21.11.2017 13:00:00 (GMT)East malling, United Kingdom (99008): temperature -20cm: 15.11.2017 13:00:00 - 21.11.2017 13:00:00 (GMT)East malling, United Kingdom (99008): wind speed: 15.11.2017 13:00:00 - 21.11.2017 13:00:00 (GMT)East malling, United Kingdom (99008): wind direction: 15.11.2017 13:00:00 - 21.11.2017 13:00:00 (GMT)East malling, United Kingdom (99008): reduced air pressure: 15.11.2017 13:00:00 - 21.11.2017 13:00:00 (GMT)East malling, United Kingdom (99008): sunshine duration: 15.11.2017 13:00:00 - 21.11.2017 13:00:00 (GMT)East malling, United Kingdom (99008): precipitation: 15.11.2017 13:00:00 - 21.11.2017 13:00:00 (GMT)
Date & Time tt [°C] td [°C] tt -20cm [°C] ff [km/h] ff [kn] dd ppp [hPa] sd [min] rr [mm]
21.11.2017 13:00:00 13,4 9,2 - 15 8 SW 1010,6 0 -
21.11.2017 12:00:00 13,5 9,7 - 18 10 SW 1011,4 30 0,0
21.11.2017 11:00:00 12,7 9,4 - 15 8 SW 1012,1 0 -
21.11.2017 10:00:00 12,3 9,5 - 16 9 SW 1012,1 0 0,0
21.11.2017 09:00:00 12,0 9,6 9,2 16 9 SW 1012,3 0 0,0
21.11.2017 08:00:00 11,9 9,4 - 15 8 SW 1012,4 0 0,0
21.11.2017 07:00:00 11,7 9,6 - 16 9 SW 1012,0 0 0,0
21.11.2017 06:00:00 11,9 9,7 - 16 9 SW 1012,2 0 0,0
21.11.2017 05:00:00 12,2 10,2 - 21 11 SW 1012,4 0 0,0
21.11.2017 04:00:00 12,3 10,6 - 15 8 SW 1012,5 0 0,0
21.11.2017 03:00:00 12,3 10,7 - 15 8 SW 1012,7 0 0,0
21.11.2017 02:00:00 12,1 11,0 - 11 6 WSW 1013,0 0 0,0
21.11.2017 01:00:00 12,0 11,1 - 13 7 SW 1013,2 0 0,0
21.11.2017 00:00:00 12,4 10,7 - 13 7 WSW 1013,5 - 0,0
20.11.2017 23:00:00 12,4 10,7 - 15 8 WSW 1013,4 0 0,0
20.11.2017 22:00:00 - - - - - - - - 0,0
20.11.2017 21:00:00 12,3 10,7 - 13 7 WSW 1013,6 0 0,0
20.11.2017 20:00:00 12,4 10,9 - 13 7 WSW 1013,5 0 0,0
20.11.2017 19:00:00 12,2 10,8 - 16 9 SW 1013,2 0 0,0
20.11.2017 18:00:00 12,1 10,7 - 18 10 SW 1013,3 0 0,2
20.11.2017 17:00:00 11,8 10,8 - 21 11 SW 1013,1 0 0,2
20.11.2017 16:00:00 12,0 10,4 - 16 9 WSW 1013,2 0 0,0
20.11.2017 15:00:00 11,9 10,5 - 18 10 SW 1013,2 0 0,0
20.11.2017 14:00:00 11,7 9,9 - 15 8 WSW 1014,2 0 0,0
20.11.2017 13:00:00 12,4 9,2 - 22 12 WSW 1014,5 0 0,0
20.11.2017 12:00:00 12,1 9,1 - 22 12 SW 1014,9 12 0,0
20.11.2017 11:00:00 11,3 8,8 - 22 12 WSW 1015,8 6 -
20.11.2017 10:00:00 10,0 8,4 - 15 8 SSW 1016,1 0 0,2
20.11.2017 09:00:00 7,9 7,5 6,7 8 4 SW 1016,8 0 0,0
20.11.2017 08:00:00 6,8 6,5 - 8 4 SSW 1017,3 0 0,6
20.11.2017 07:00:00 6,5 6,2 - 4 2 SSW 1018,0 0 0,4
20.11.2017 06:00:00 4,6 4,1 - 8 4 SE 1018,4 0 0,2
20.11.2017 05:00:00 4,2 3,4 - 2 1 N 1019,2 0 0,2
20.11.2017 04:00:00 3,8 2,7 - 2 1 N 1019,7 0 0,0
20.11.2017 03:00:00 - - - - - - - - 0,0
20.11.2017 02:00:00 3,0 1,9 - 2 1 NW 1021,5 0 -
20.11.2017 01:00:00 3,1 1,8 - 2 1 E 1022,4 0 0,0
20.11.2017 00:00:00 2,5 1,0 - 2 1 ESE 1023,5 - 0,0
19.11.2017 23:00:00 2,8 1,7 - 5 3 S 1023,7 0 0,0
19.11.2017 22:00:00 0,9 0,1 - 2 1 S 1024,2 0 0,0
19.11.2017 21:00:00 1,6 0,1 - 4 2 SSW 1024,2 0 0,0
19.11.2017 20:00:00 3,4 0,9 - 5 3 SW 1024,1 0 0,0
19.11.2017 19:00:00 4,6 1,2 - 8 4 SSW 1024,0 0 0,0
19.11.2017 18:00:00 5,2 0,7 - 5 3 SW 1024,0 0 0,0
19.11.2017 17:00:00 5,5 0,5 - 5 3 WSW 1024,4 6 0,0
19.11.2017 16:00:00 5,5 0,2 - 5 3 WSW 1024,0 24 0,0
19.11.2017 15:00:00 7,5 0,3 - 8 4 W 1024,0 60 0,0
19.11.2017 14:00:00 7,2 1,0 - 5 3 W 1023,8 42 0,0
19.11.2017 13:00:00 7,5 1,1 - 5 3 NW 1024,2 54 0,0
19.11.2017 12:00:00 - - - - - - - - 0,0
19.11.2017 11:00:00 5,7 0,5 - 5 3 NW 1024,1 54 0,0
19.11.2017 10:00:00 5,2 0,5 - 8 4 NW 1024,0 54 0,0
19.11.2017 09:00:00 4,4 0,3 6,7 5 3 WSW 1023,6 60 0,0
19.11.2017 08:00:00 2,6 0,9 - 8 4 WSW 1023,1 18 0,0
19.11.2017 07:00:00 3,3 1,2 - 9 5 NW 1022,4 0 0,0
19.11.2017 06:00:00 3,2 1,7 - 11 6 WNW 1022,1 0 0,0
19.11.2017 05:00:00 3,7 2,4 - 11 6 WNW 1021,7 0 0,0
19.11.2017 04:00:00 4,5 2,9 - 11 6 WNW 1021,6 0 0,0
19.11.2017 03:00:00 4,5 3,0 - 9 5 WNW 1021,5 0 0,0
19.11.2017 02:00:00 5,0 3,1 - 9 5 WNW 1021,4 0 -
19.11.2017 01:00:00 5,5 3,5 - 9 5 W 1021,1 0 0,0
19.11.2017 00:00:00 5,6 4,0 - 9 5 WNW 1021,0 - 0,0
18.11.2017 23:00:00 6,3 4,3 - 9 5 WNW 1020,8 0 0,0
18.11.2017 22:00:00 6,9 5,6 - 5 3 W 1020,7 0 0,0
18.11.2017 21:00:00 7,2 5,7 - 8 4 W 1020,5 0 0,0
18.11.2017 20:00:00 7,2 6,0 - 5 3 W 1020,5 0 0,0
18.11.2017 19:00:00 6,9 6,2 - 5 3 W 1020,6 0 0,2
18.11.2017 18:00:00 7,0 6,2 - 8 4 NW 1020,8 0 0,4
18.11.2017 17:00:00 7,6 7,1 - 11 6 N 1020,6 0 1,0
18.11.2017 16:00:00 8,3 7,8 - 2 1 NW 1020,5 0 0,2
18.11.2017 15:00:00 8,3 7,6 - 9 5 WSW 1020,7 0 0,6
18.11.2017 14:00:00 8,1 7,3 - 11 6 WSW 1021,3 0 0,4
18.11.2017 13:00:00 7,9 7,0 - 11 6 SW 1021,8 0 0,2
18.11.2017 12:00:00 8,1 5,5 - 11 6 WSW 1022,6 0 0,0
18.11.2017 11:00:00 7,5 4,9 - 15 8 WSW 1023,4 0 0,0
18.11.2017 10:00:00 7,2 4,5 - 9 5 WSW 1023,7 24 0,0
18.11.2017 09:00:00 5,5 2,9 6,7 9 5 SW 1024,2 18 0,0
18.11.2017 08:00:00 4,0 2,0 - 9 5 WSW 1024,3 30 0,0
18.11.2017 07:00:00 2,2 0,6 - 5 3 SW 1024,3 0 0,0
18.11.2017 06:00:00 2,6 0,4 - 11 6 SSW 1024,4 0 0,0
18.11.2017 05:00:00 4,4 0,5 - 9 5 SW 1024,8 0 0,0
18.11.2017 04:00:00 4,3 2,1 - 9 5 WSW 1025,2 0 0,0
18.11.2017 03:00:00 1,5 1,2 - 0 0 N 1025,9 0 0,0
18.11.2017 02:00:00 1,0 0,6 - 2 1 SSW 1026,4 0 0,0
18.11.2017 01:00:00 0,1 -0,3 - 4 2 SSE 1026,8 0 0,0
18.11.2017 00:00:00 -1,0 -1,4 - 2 1 S 1027,5 - -
17.11.2017 23:00:00 -1,4 -1,9 - 4 2 SW 1027,6 0 0,0
17.11.2017 22:00:00 -1,0 -1,9 - 2 1 ENE 1027,9 0 0,0
17.11.2017 21:00:00 -0,1 -1,1 - 4 2 E 1028,2 0 0,0
17.11.2017 20:00:00 1,8 0,4 - 4 2 SW 1028,3 0 0,0
17.11.2017 19:00:00 2,8 1,2 - 4 2 E 1028,2 0 0,0
17.11.2017 18:00:00 1,7 -0,1 - 4 2 SSW 1028,5 0 0,0
17.11.2017 17:00:00 2,9 -0,3 - 4 2 SSW 1028,4 0 0,0
17.11.2017 16:00:00 6,8 0,4 - 5 3 NW 1028,6 42 0,0
17.11.2017 15:00:00 8,5 1,6 - 8 4 NNW 1028,5 60 0,0
17.11.2017 14:00:00 9,1 1,4 - 9 5 NW 1028,8 60 0,0
17.11.2017 13:00:00 8,8 1,6 - 8 4 NNW 1029,6 60 0,0
17.11.2017 12:00:00 8,2 1,6 - 8 4 N 1029,7 60 0,0
17.11.2017 11:00:00 7,1 2,4 - 4 2 N 1030,4 60 0,0
17.11.2017 10:00:00 6,3 3,1 - 2 1 S 1030,0 60 0,0
17.11.2017 09:00:00 1,9 1,7 7,7 4 2 SW 1030,1 36 0,0
17.11.2017 08:00:00 -1,6 -2,1 - 2 1 E 1030,2 6 0,0
17.11.2017 07:00:00 -1,5 -2,0 - 2 1 W 1029,7 0 0,0
17.11.2017 06:00:00 -0,1 -0,5 - 4 2 WSW 1029,6 0 0,0
17.11.2017 05:00:00 -0,9 -1,5 - 4 2 SW 1029,3 0 0,0
17.11.2017 04:00:00 0,5 -0,1 - 2 1 W 1029,1 0 0,0
17.11.2017 03:00:00 1,0 0,2 - 4 2 NNW 1028,8 0 0,0
17.11.2017 02:00:00 2,0 0,9 - 2 1 NW 1028,7 0 0,0
17.11.2017 01:00:00 5,3 2,5 - 9 5 N 1028,3 0 0,0
17.11.2017 00:00:00 5,9 2,6 - 4 2 NNW 1028,1 - 0,0
16.11.2017 23:00:00 7,7 3,5 - 11 6 N 1027,4 0 0,0
16.11.2017 22:00:00 8,9 4,8 - 13 7 N 1027,0 0 0,0
16.11.2017 21:00:00 9,1 4,8 - 8 4 N 1026,6 0 0,0
16.11.2017 20:00:00 9,1 5,0 - 8 4 NNW 1026,0 0 0,0
16.11.2017 19:00:00 10,1 6,4 - 13 7 N 1025,3 0 0,0
16.11.2017 18:00:00 11,3 8,4 - 5 3 WNW 1024,2 0 0,0
16.11.2017 17:00:00 11,0 9,1 - 4 2 WSW 1023,4 0 0,0
16.11.2017 16:00:00 11,6 9,0 - 5 3 SW 1022,8 0 0,0
16.11.2017 15:00:00 12,4 9,0 - 11 6 WSW 1022,6 0 0,0
16.11.2017 14:00:00 12,9 9,0 - 15 8 W 1022,5 6 0,0
16.11.2017 13:00:00 12,6 9,8 - 15 8 SW 1022,3 0 0,0
16.11.2017 12:00:00 11,9 10,0 - 13 7 SW 1022,6 18 0,0
16.11.2017 11:00:00 11,0 9,9 - 11 6 SSW 1023,0 0 0,0
16.11.2017 10:00:00 10,5 10,0 - 9 5 SW 1023,0 6 0,0
16.11.2017 09:00:00 9,6 9,3 9,5 9 5 SSW 1022,8 0 0,0
16.11.2017 08:00:00 9,1 8,9 - 5 3 SSW 1022,8 0 0,0
16.11.2017 07:00:00 9,0 8,8 - 4 2 SW 1022,2 0 0,0
16.11.2017 06:00:00 9,5 9,2 - 8 4 S 1021,8 0 0,0
16.11.2017 05:00:00 9,7 9,4 - 4 2 S 1021,7 0 0,0
16.11.2017 04:00:00 9,4 9,2 - 2 1 ESE 1021,7 0 0,0
16.11.2017 03:00:00 9,4 9,2 - 4 2 SW 1022,5 0 0,0
16.11.2017 02:00:00 9,3 9,1 - 4 2 SW 1022,9 0 0,0
16.11.2017 01:00:00 9,6 9,4 - 4 2 S 1023,0 0 0,0
16.11.2017 00:00:00 9,5 9,2 - 0 0 N 1023,4 - 0,0
15.11.2017 23:00:00 9,7 9,4 - 4 2 S 1023,5 0 0,0
15.11.2017 22:00:00 10,3 10,0 - 2 1 ESE 1023,5 0 0,0
15.11.2017 21:00:00 10,0 9,6 - 4 2 SSW 1023,9 0 0,0
15.11.2017 20:00:00 10,1 9,6 - 4 2 WSW 1023,9 0 0,0
15.11.2017 19:00:00 10,4 9,8 - 4 2 S 1024,1 0 0,0
15.11.2017 18:00:00 10,7 9,8 - 2 1 SSW 1024,1 0 0,0
15.11.2017 17:00:00 11,4 10,0 - 0 0 N 1024,0 0 0,0
15.11.2017 16:00:00 12,0 10,4 - 4 2 SSE 1024,0 0 0,0
15.11.2017 15:00:00 12,1 10,3 - 4 2 E 1024,0 0 -
15.11.2017 14:00:00 12,6 10,5 - 4 2 SSW 1024,4 0 0,0
15.11.2017 13:00:00 12,8 10,4 - 2 1 NE 1024,4 0 0,0

tt = temperature
td = dewpoint
tt -20cm = temperature -20cm
ff = wind speed
dd = wind direction
ppp = reduced air pressure
sd = sunshine duration
rr = precipitation

Next stations